Home PIREPS Pireps

Flight BEL3181

  • Submitted By: Kristian Fodor
  • Departure Airport: Bruxelles National (EBBR)
  • Arrival Airport: Fiumicino International Airport (LIRF)
  • Aircraft: A320-214 (OO-SNA)
  • Flight Time: 02.03
  • Date Submitted: 04/04/2015
  • Status: Accepted
Flight Details
Gross Revenue:
(132 load / € 159.00 per unit
€ 20,988.00
Fuel Cost:
(6298 fuel used @ 5.1 / unit)
€ 32,119.80

Additional Log Information:

View Log

Aircraft Used in flight is Airbus A320 NEO
00:14 Brakes are On
00:16 Brakes are Released
00:19 Brakes are On
00:25 Brakes are Released
00:27 You Took off @ 156 Knots and Flaps at Position 2
Departure Weather
EBBR 032050Z 10003KT 070V130 9999 BKN017 07/04 Q1017 NOSIGrn
00:27 You are Airborne and your Navigation Lights are off
00:27 Landing Gear Up @ 131 Knots and 900 Feet
00:29 Below Fl100 you need to turn on the landing lights
00:29 Below FL100 you need to turn on the landing lights
00:31 You exceeded maximum bank angle
00:54 Landing Gear Up @ 185 Knots and 23820 Feet
02:11 Landing Gear Down @ 223 Knots and 1950 Feet
02:13 You Landed @ 143 Knots and with -600 Vertical Speed
Arrival Weather
LIRF 032250Z 07004KT CAVOK 11/09 Q1017 NOSIGrn
02:13 Your Landing was very hard
02:15 Brakes are On
02:18 Brussels Bel-Track1.0.0.9

Comments

Commenter Comment
Kristian Fodor Landing lights were on,switched them off upon reaching FL100. Lost connection for approx 1-2 mins. Landing Gear never went down, don't know how it can get up twice in a roll..

Route Map

Corporate About Us Our Team Vacancies Information Fleet Route Network Rules and Regulations Operations Flight Schedules Event Center Tours Partners IVAO Vatsim Acars dev FSCB

fb Users Online Belgium Michael Bitu, Belgium Jan Roscam,
4 Pilot(s) and 117 Guest(s) Online
CMS by phpVMS - Design by Crazycreatives.com - Copyright © 2018 - Brussels Airlines Virtual